Time;durP1;ratioP1;P1;durP2;ratioP2;P2;SDS_P1;SDS_P2;PMS_P1;PMS_P2;Temp;Humidity;BMP_temperature;BMP_pressure;BME280_temperature;BME280_humidity;BME280_pressure;Samples;Min_cycle;Max_cycle;Signal;HPM_P1;HPM_P2
2022/11/08 00:01:30;;;;;;;236.20;124.80;;;;;;;;;;4984015;28;20276;-73
2022/11/08 00:03:56;;;;;;;257.63;130.97;;;;;;;;;;4977527;28;20236;-73
2022/11/08 00:14:37;;;;;;;249.10;128.80;;;;;;;;;;4984785;28;20224;-73
2022/11/08 00:17:02;;;;;;;245.47;123.13;;;;;;;;;;4987016;28;20866;-73
2022/11/08 00:19:28;;;;;;;231.87;119.60;;;;;;;;;;4984473;28;20946;-73
2022/11/08 00:21:54;;;;;;;268.43;126.10;;;;;;;;;;4977483;28;20831;-73
2022/11/08 00:24:20;;;;;;;277.70;128.00;;;;;;;;;;4981339;28;20193;-73
2022/11/08 00:26:46;;;;;;;232.50;114.30;;;;;;;;;;4980731;28;20296;-73
2022/11/08 00:29:12;;;;;;;235.60;116.43;;;;;;;;;;4982234;28;20252;-73
2022/11/08 00:31:38;;;;;;;295.33;131.77;;;;;;;;;;4973298;28;20205;-73
2022/11/08 00:34:04;;;;;;;287.60;127.60;;;;;;;;;;4975332;28;20213;-73
2022/11/08 00:36:30;;;;;;;177.00;101.77;;;;;;;;;;5001063;28;20197;-72
2022/11/08 00:38:56;;;;;;;310.43;140.03;;;;;;;;;;4973487;28;20181;-73
2022/11/08 00:41:22;;;;;;;314.80;140.40;;;;;;;;;;4974095;28;20710;-73
2022/11/08 00:43:48;;;;;;;250.77;120.87;;;;;;;;;;4978635;28;20551;-73
2022/11/08 00:46:14;;;;;;;283.43;128.17;;;;;;;;;;4978180;28;20224;-73
2022/11/08 00:48:40;;;;;;;293.20;133.63;;;;;;;;;;4969480;28;20192;-72
2022/11/08 00:51:07;;;;;;;344.60;146.77;;;;;;;;;;4978904;28;20186;-73
2022/11/08 00:53:33;;;;;;;209.30;110.30;;;;;;;;;;4993389;28;20377;-73
2022/11/08 00:56:03;;;;;;;272.20;127.73;;;;;;;;;;4991097;28;20205;-73
2022/11/08 00:58:29;;;;;;;288.93;129.87;;;;;;;;;;4981215;28;20213;-72
2022/11/08 01:00:55;;;;;;;287.20;130.87;;;;;;;;;;4983247;28;20229;-72
2022/11/08 01:03:22;;;;;;;320.13;143.57;;;;;;;;;;4977032;28;20269;-72
2022/11/08 01:05:49;;;;;;;303.77;135.97;;;;;;;;;;4986487;28;20217;-72
2022/11/08 01:08:16;;;;;;;374.87;159.67;;;;;;;;;;4990261;28;20716;-72
2022/11/08 01:10:43;;;;;;;324.83;146.00;;;;;;;;;;4978348;28;20344;-72
2022/11/08 01:13:10;;;;;;;365.53;162.57;;;;;;;;;;4978387;28;20229;-72
2022/11/08 01:15:37;;;;;;;340.27;148.13;;;;;;;;;;4981203;28;20562;-72
2022/11/08 01:18:04;;;;;;;342.17;145.87;;;;;;;;;;4988236;28;21343;-73
2022/11/08 01:20:30;;;;;;;347.80;147.97;;;;;;;;;;4988550;28;20306;-72
2022/11/08 01:22:56;;;;;;;321.47;143.67;;;;;;;;;;4982932;28;20229;-73
2022/11/08 01:25:22;;;;;;;280.90;127.80;;;;;;;;;;4988128;28;20216;-73
2022/11/08 01:27:48;;;;;;;331.80;142.77;;;;;;;;;;4989174;28;20233;-73
2022/11/08 01:32:33;;;;;;;333.23;146.83;;;;;;;;;;5075460;27;20581;-51
2022/11/08 01:34:58;;;;;;;356.73;157.67;;;;;;;;;;5072896;28;20222;-53
2022/11/08 01:37:24;;;;;;;344.50;152.33;;;;;;;;;;5064438;28;20218;-53
2022/11/08 01:39:50;;;;;;;336.90;148.37;;;;;;;;;;5062831;28;20736;-53
2022/11/08 01:42:16;;;;;;;343.30;152.90;;;;;;;;;;5061823;28;20220;-53
2022/11/08 01:45:15;;;;;;;339.07;151.57;;;;;;;;;;5068671;28;20246;-51
2022/11/08 01:47:41;;;;;;;210.37;111.70;;;;;;;;;;5055109;28;20778;-51
2022/11/08 01:50:12;;;;;;;219.47;115.63;;;;;;;;;;5084870;28;20224;-51
2022/11/08 01:52:46;;;;;;;314.83;141.63;;;;;;;;;;5073791;28;20202;-51
2022/11/08 01:55:15;;;;;;;345.00;154.83;;;;;;;;;;5075332;28;20234;-52
2022/11/08 01:57:43;;;;;;;336.80;152.63;;;;;;;;;;5076518;28;20201;-51
2022/11/08 02:00:11;;;;;;;338.37;153.30;;;;;;;;;;5075466;28;20319;-51
2022/11/08 02:02:38;;;;;;;332.93;151.40;;;;;;;;;;5071508;28;20206;-51
2022/11/08 02:05:06;;;;;;;367.73;170.87;;;;;;;;;;5056788;28;20207;-51
2022/11/08 02:07:32;;;;;;;344.97;156.47;;;;;;;;;;5062908;28;20210;-51
2022/11/08 02:09:59;;;;;;;334.07;154.63;;;;;;;;;;5065894;28;20407;-51
2022/11/08 02:12:26;;;;;;;341.37;156.87;;;;;;;;;;5063953;28;20187;-51
2022/11/08 02:14:52;;;;;;;351.57;163.27;;;;;;;;;;5059398;28;20608;-54
2022/11/08 02:17:18;;;;;;;310.40;141.80;;;;;;;;;;5063631;28;20218;-51
2022/11/08 02:19:46;;;;;;;329.33;151.83;;;;;;;;;;5067394;28;20415;-51
2022/11/08 02:22:15;;;;;;;341.17;155.07;;;;;;;;;;5061452;28;20313;-51
2022/11/08 02:24:41;;;;;;;356.87;160.83;;;;;;;;;;5060050;28;20189;-51
2022/11/08 02:27:07;;;;;;;357.13;160.73;;;;;;;;;;5063802;28;20694;-51
2022/11/08 02:29:35;;;;;;;334.63;148.63;;;;;;;;;;5060921;28;20224;-51
2022/11/08 02:32:02;;;;;;;321.77;143.10;;;;;;;;;;5067333;28;20211;-51
2022/11/08 02:34:34;;;;;;;325.17;142.73;;;;;;;;;;5062300;28;20214;-51
2022/11/08 02:37:01;;;;;;;387.63;176.50;;;;;;;;;;5062829;28;20218;-51
2022/11/08 02:39:27;;;;;;;339.73;152.43;;;;;;;;;;5060922;28;20210;-51
2022/11/08 02:41:54;;;;;;;335.13;148.63;;;;;;;;;;5059302;28;20253;-51
2022/11/08 02:44:20;;;;;;;372.00;165.40;;;;;;;;;;5045829;28;20230;-51
2022/11/08 02:46:46;;;;;;;343.67;155.10;;;;;;;;;;5050195;28;20227;-51
2022/11/08 02:49:12;;;;;;;335.80;149.83;;;;;;;;;;5051134;28;20215;-51
2022/11/08 02:51:38;;;;;;;367.67;164.60;;;;;;;;;;5046324;28;20195;-51
2022/11/08 02:54:04;;;;;;;326.57;145.97;;;;;;;;;;5044402;28;20683;-52
2022/11/08 02:56:30;;;;;;;336.47;150.23;;;;;;;;;;5056305;28;20227;-51
2022/11/08 02:58:55;;;;;;;297.93;131.53;;;;;;;;;;5055197;28;20225;-51
2022/11/08 03:01:21;;;;;;;355.47;158.27;;;;;;;;;;5050693;28;20780;-51
2022/11/08 03:03:47;;;;;;;358.33;158.43;;;;;;;;;;5045814;28;20297;-51
2022/11/08 03:06:13;;;;;;;354.80;157.07;;;;;;;;;;5048265;28;20222;-51
2022/11/08 03:08:39;;;;;;;347.57;151.27;;;;;;;;;;5049032;28;20222;-51
2022/11/08 03:11:05;;;;;;;326.97;144.83;;;;;;;;;;5052044;28;20214;-51
2022/11/08 03:13:31;;;;;;;341.97;152.47;;;;;;;;;;5051994;28;20219;-51
2022/11/08 03:15:57;;;;;;;357.07;160.07;;;;;;;;;;5044832;28;20223;-51
2022/11/08 03:18:23;;;;;;;371.37;162.23;;;;;;;;;;5046317;28;20187;-51
2022/11/08 03:20:49;;;;;;;375.50;166.30;;;;;;;;;;5049518;28;20225;-51
2022/11/08 03:23:15;;;;;;;364.47;157.60;;;;;;;;;;5049101;28;20835;-51
2022/11/08 03:25:41;;;;;;;343.23;155.63;;;;;;;;;;5055704;28;20214;-51
2022/11/08 03:28:07;;;;;;;347.97;154.13;;;;;;;;;;5044622;28;20249;-52
2022/11/08 03:30:34;;;;;;;312.20;139.80;;;;;;;;;;5053472;28;20244;-51
2022/11/08 03:33:00;;;;;;;316.23;140.17;;;;;;;;;;5056749;28;20191;-51
2022/11/08 03:35:26;;;;;;;337.37;149.47;;;;;;;;;;5052893;28;20373;-51
2022/11/08 03:37:53;;;;;;;335.50;150.40;;;;;;;;;;5051466;28;20583;-51
2022/11/08 03:40:19;;;;;;;340.80;152.30;;;;;;;;;;5045569;28;20773;-51
2022/11/08 03:42:46;;;;;;;328.93;145.77;;;;;;;;;;5050385;28;20223;-51
2022/11/08 03:45:12;;;;;;;371.43;166.60;;;;;;;;;;5045311;28;20186;-51
2022/11/08 03:47:39;;;;;;;360.10;160.60;;;;;;;;;;5045994;28;20778;-51
2022/11/08 03:50:06;;;;;;;339.20;153.40;;;;;;;;;;5046407;28;20258;-51
2022/11/08 03:52:32;;;;;;;368.20;168.10;;;;;;;;;;5045629;28;20214;-51
2022/11/08 03:54:58;;;;;;;356.17;159.27;;;;;;;;;;5041755;28;20257;-54
2022/11/08 03:57:23;;;;;;;312.40;140.93;;;;;;;;;;5046478;28;20229;-51
2022/11/08 03:59:49;;;;;;;345.73;155.23;;;;;;;;;;5048895;28;20222;-51
2022/11/08 04:02:15;;;;;;;336.90;154.00;;;;;;;;;;5044441;28;20233;-52
2022/11/08 04:04:41;;;;;;;356.47;158.73;;;;;;;;;;5045896;28;20221;-51
2022/11/08 04:07:07;;;;;;;358.73;160.47;;;;;;;;;;5046862;28;20219;-51
2022/11/08 04:09:33;;;;;;;352.93;159.53;;;;;;;;;;5051194;28;20269;-51
2022/11/08 04:22:58;;;;;;;340.50;152.60;;;;;;;;;;5043629;28;20765;-51
2022/11/08 04:25:24;;;;;;;322.63;143.40;;;;;;;;;;5053704;28;20215;-51
2022/11/08 04:27:50;;;;;;;321.17;140.80;;;;;;;;;;5065105;28;20211;-51
2022/11/08 04:30:16;;;;;;;335.67;146.10;;;;;;;;;;5049324;28;20761;-51
2022/11/08 04:32:42;;;;;;;325.97;143.03;;;;;;;;;;5052464;28;20698;-51
2022/11/08 04:35:08;;;;;;;362.37;160.97;;;;;;;;;;5045800;28;20264;-51
2022/11/08 04:37:33;;;;;;;330.13;144.63;;;;;;;;;;5047187;28;20223;-51
2022/11/08 04:39:59;;;;;;;378.90;167.67;;;;;;;;;;5045934;28;20218;-51
2022/11/08 04:42:25;;;;;;;329.40;143.97;;;;;;;;;;5040155;28;20208;-51
2022/11/08 04:44:51;;;;;;;339.63;150.00;;;;;;;;;;5053245;28;20655;-51
2022/11/08 04:47:17;;;;;;;367.87;163.03;;;;;;;;;;5046898;28;20274;-51
2022/11/08 04:49:43;;;;;;;329.73;144.13;;;;;;;;;;5048781;28;20200;-51
2022/11/08 04:52:09;;;;;;;331.23;145.77;;;;;;;;;;5050869;28;20211;-51
2022/11/08 04:54:35;;;;;;;344.17;153.87;;;;;;;;;;5051812;28;20228;-51
2022/11/08 04:57:01;;;;;;;309.07;137.10;;;;;;;;;;5050748;28;20595;-51
2022/11/08 04:59:27;;;;;;;327.90;142.83;;;;;;;;;;5053553;28;20308;-54
2022/11/08 05:01:52;;;;;;;381.67;167.73;;;;;;;;;;5049100;28;20245;-54
2022/11/08 05:04:18;;;;;;;358.77;157.23;;;;;;;;;;5046315;28;20227;-51
2022/11/08 05:06:44;;;;;;;352.93;153.93;;;;;;;;;;5044339;28;20213;-51
2022/11/08 05:09:10;;;;;;;349.43;153.53;;;;;;;;;;5044769;28;20221;-54
2022/11/08 05:11:36;;;;;;;333.57;146.80;;;;;;;;;;5055691;28;20210;-54
2022/11/08 05:14:02;;;;;;;364.50;160.90;;;;;;;;;;5054623;28;20203;-51
2022/11/08 05:16:29;;;;;;;351.57;152.93;;;;;;;;;;5049675;28;20227;-51
2022/11/08 05:18:55;;;;;;;373.13;165.07;;;;;;;;;;5043781;28;20223;-51
2022/11/08 05:24:08;;;;;;;350.97;154.30;;;;;;;;;;5044862;28;20273;-51
2022/11/08 05:26:35;;;;;;;349.83;152.10;;;;;;;;;;5044252;28;20373;-51
2022/11/08 05:29:01;;;;;;;310.30;135.10;;;;;;;;;;5049607;28;20682;-51
2022/11/08 05:31:27;;;;;;;389.63;170.23;;;;;;;;;;5049966;28;20227;-51
2022/11/08 05:33:53;;;;;;;329.33;144.97;;;;;;;;;;5050453;28;20281;-51
2022/11/08 05:36:19;;;;;;;333.17;145.17;;;;;;;;;;5050724;28;20263;-51
2022/11/08 05:38:45;;;;;;;363.63;160.57;;;;;;;;;;5043855;28;20227;-51
2022/11/08 05:41:18;;;;;;;361.60;159.57;;;;;;;;;;5038955;28;20703;-51
2022/11/08 05:43:45;;;;;;;336.53;149.87;;;;;;;;;;5044198;28;20211;-51
2022/11/08 05:46:11;;;;;;;315.47;143.67;;;;;;;;;;5050829;28;20244;-51
2022/11/08 05:48:37;;;;;;;344.90;152.17;;;;;;;;;;5055057;28;20185;-51
2022/11/08 05:51:04;;;;;;;349.40;155.33;;;;;;;;;;5051376;28;20194;-51
2022/11/08 05:53:30;;;;;;;344.70;154.30;;;;;;;;;;5055494;28;20222;-51
2022/11/08 05:56:00;;;;;;;316.90;140.57;;;;;;;;;;5049901;28;20218;-51
2022/11/08 05:58:27;;;;;;;316.67;138.87;;;;;;;;;;5057692;28;20329;-51
2022/11/08 06:01:19;;;;;;;350.40;153.80;;;;;;;;;;5056966;28;20583;-51
2022/11/08 06:03:46;;;;;;;316.47;137.77;;;;;;;;;;5062244;28;20733;-51
2022/11/08 06:06:13;;;;;;;344.00;150.27;;;;;;;;;;5050704;28;20242;-51
2022/11/08 06:08:39;;;;;;;301.83;132.73;;;;;;;;;;5049772;28;20221;-52
2022/11/08 06:11:06;;;;;;;292.23;128.03;;;;;;;;;;5059049;28;20231;-52
2022/11/08 06:13:33;;;;;;;295.83;129.80;;;;;;;;;;5049432;28;20695;-52
2022/11/08 06:16:01;;;;;;;271.77;121.67;;;;;;;;;;5058207;28;20234;-52
2022/11/08 06:18:26;;;;;;;321.87;140.90;;;;;;;;;;5049586;28;20596;-52
2022/11/08 06:20:52;;;;;;;303.93;136.10;;;;;;;;;;5056616;28;20199;-52
2022/11/08 06:23:18;;;;;;;302.50;135.20;;;;;;;;;;5055497;28;20675;-52
2022/11/08 06:25:46;;;;;;;311.30;136.70;;;;;;;;;;5057651;28;20321;-52
2022/11/08 06:28:13;;;;;;;291.53;129.57;;;;;;;;;;5059869;28;20561;-52
2022/11/08 06:30:39;;;;;;;296.33;133.17;;;;;;;;;;5058274;28;20516;-52
2022/11/08 06:33:05;;;;;;;285.37;128.00;;;;;;;;;;5060863;28;20184;-53
2022/11/08 06:35:31;;;;;;;291.10;128.80;;;;;;;;;;5059120;28;20632;-53
2022/11/08 06:37:57;;;;;;;303.03;133.33;;;;;;;;;;5056263;28;20211;-52
2022/11/08 06:40:23;;;;;;;303.60;133.07;;;;;;;;;;5072616;28;20541;-52
2022/11/08 06:42:49;;;;;;;299.20;132.73;;;;;;;;;;5063817;28;20297;-52
2022/11/08 06:45:15;;;;;;;300.60;133.43;;;;;;;;;;5056527;28;20293;-53
2022/11/08 06:47:41;;;;;;;348.43;157.17;;;;;;;;;;5045960;28;20222;-53
2022/11/08 06:50:07;;;;;;;355.90;159.97;;;;;;;;;;5025562;28;20904;-53
2022/11/08 06:52:33;;;;;;;379.67;170.43;;;;;;;;;;5037412;28;20219;-53
2022/11/08 06:54:59;;;;;;;348.40;158.20;;;;;;;;;;5046461;28;20334;-53
2022/11/08 06:57:25;;;;;;;308.43;139.07;;;;;;;;;;5049450;28;20249;-53
2022/11/08 06:59:51;;;;;;;312.30;140.00;;;;;;;;;;5048881;28;20512;-54
2022/11/08 07:02:17;;;;;;;317.67;142.93;;;;;;;;;;5049872;28;20242;-53
2022/11/08 07:04:43;;;;;;;308.20;139.40;;;;;;;;;;5049861;28;20214;-53
2022/11/08 07:07:09;;;;;;;302.97;134.47;;;;;;;;;;5058050;28;20259;-53
2022/11/08 07:09:35;;;;;;;290.43;130.87;;;;;;;;;;5072286;28;20508;-53
2022/11/08 07:12:01;;;;;;;305.73;135.57;;;;;;;;;;5072122;28;20175;-53
2022/11/08 07:14:27;;;;;;;304.30;136.40;;;;;;;;;;5071864;28;20225;-53
2022/11/08 07:16:53;;;;;;;315.70;136.50;;;;;;;;;;5065613;28;20207;-53
2022/11/08 07:19:18;;;;;;;302.80;134.97;;;;;;;;;;5071263;28;20210;-53
2022/11/08 07:21:44;;;;;;;329.40;145.80;;;;;;;;;;5068180;28;20243;-53
2022/11/08 07:24:10;;;;;;;301.57;135.67;;;;;;;;;;5072150;28;20220;-53
2022/11/08 07:26:36;;;;;;;321.17;141.70;;;;;;;;;;5054536;28;20412;-53
2022/11/08 07:29:02;;;;;;;299.07;133.10;;;;;;;;;;5052311;28;20278;-53
2022/11/08 07:31:28;;;;;;;321.53;140.53;;;;;;;;;;5046673;28;20260;-51
2022/11/08 07:33:54;;;;;;;351.57;155.37;;;;;;;;;;5048080;28;20227;-51
2022/11/08 07:36:20;;;;;;;549.50;251.67;;;;;;;;;;5021146;28;20246;-51
2022/11/08 07:38:46;;;;;;;316.33;138.90;;;;;;;;;;5034925;28;20215;-53
2022/11/08 07:41:12;;;;;;;310.83;137.90;;;;;;;;;;5054936;28;20207;-53
2022/11/08 07:43:38;;;;;;;305.87;136.43;;;;;;;;;;5059570;28;20207;-53
2022/11/08 07:46:04;;;;;;;303.10;135.90;;;;;;;;;;5055934;28;20444;-53
2022/11/08 07:48:30;;;;;;;329.73;147.77;;;;;;;;;;5052749;28;20202;-53
2022/11/08 07:50:56;;;;;;;305.90;136.30;;;;;;;;;;5056678;28;20555;-53
2022/11/08 07:53:22;;;;;;;290.70;126.60;;;;;;;;;;5069953;28;20223;-53
2022/11/08 07:55:48;;;;;;;310.27;140.33;;;;;;;;;;5070148;28;20257;-53
2022/11/08 07:58:15;;;;;;;310.93;139.30;;;;;;;;;;5065980;28;20301;-53
2022/11/08 08:00:41;;;;;;;327.53;143.63;;;;;;;;;;5069948;28;20222;-53
2022/11/08 08:03:09;;;;;;;315.43;138.60;;;;;;;;;;5070516;28;20171;-53
2022/11/08 08:05:36;;;;;;;317.30;141.20;;;;;;;;;;5062743;28;20234;-53
2022/11/08 08:08:02;;;;;;;324.50;143.00;;;;;;;;;;5060784;28;20233;-52
2022/11/08 08:10:29;;;;;;;326.40;144.43;;;;;;;;;;5055264;28;20208;-52
2022/11/08 08:12:55;;;;;;;311.03;137.70;;;;;;;;;;5064270;28;20229;-53
2022/11/08 08:15:21;;;;;;;301.53;133.97;;;;;;;;;;5069991;28;20167;-53
2022/11/08 08:17:47;;;;;;;313.33;138.27;;;;;;;;;;5069334;28;20424;-53
2022/11/08 08:20:13;;;;;;;315.37;139.53;;;;;;;;;;5059010;28;20670;-53
2022/11/08 08:22:43;;;;;;;321.00;142.83;;;;;;;;;;5052350;28;20234;-53
2022/11/08 08:25:09;;;;;;;318.77;143.50;;;;;;;;;;5068189;28;20257;-53
2022/11/08 08:27:35;;;;;;;312.83;140.10;;;;;;;;;;5054051;28;20211;-53
2022/11/08 08:30:01;;;;;;;318.63;142.17;;;;;;;;;;5069572;28;20178;-53
2022/11/08 08:32:27;;;;;;;329.33;146.90;;;;;;;;;;5065396;28;20219;-53
2022/11/08 08:34:53;;;;;;;328.23;144.47;;;;;;;;;;5054771;28;20215;-53
2022/11/08 08:37:19;;;;;;;303.73;134.17;;;;;;;;;;5049184;28;20223;-53
2022/11/08 08:39:45;;;;;;;322.90;144.13;;;;;;;;;;5068620;28;20214;-53
2022/11/08 08:42:11;;;;;;;306.50;141.33;;;;;;;;;;5068147;28;20293;-53
2022/11/08 08:44:37;;;;;;;323.37;146.90;;;;;;;;;;5067078;28;20286;-53
2022/11/08 08:47:03;;;;;;;328.80;146.23;;;;;;;;;;5056629;28;20211;-53
2022/11/08 08:49:29;;;;;;;298.33;134.20;;;;;;;;;;5059778;28;20623;-53
2022/11/08 08:51:55;;;;;;;315.23;142.63;;;;;;;;;;5064841;28;20242;-53
2022/11/08 08:54:20;;;;;;;309.80;139.00;;;;;;;;;;5060014;28;20595;-53
2022/11/08 08:56:46;;;;;;;315.17;141.13;;;;;;;;;;5054659;28;20211;-53
2022/11/08 08:59:13;;;;;;;304.13;136.77;;;;;;;;;;5069046;28;20207;-53
2022/11/08 09:01:39;;;;;;;313.57;148.60;;;;;;;;;;5056187;28;20313;-53
2022/11/08 09:04:05;;;;;;;317.83;143.30;;;;;;;;;;5053025;28;20301;-53
2022/11/08 09:06:31;;;;;;;333.83;151.57;;;;;;;;;;5068482;28;20281;-54
2022/11/08 09:08:57;;;;;;;316.03;141.57;;;;;;;;;;5069280;28;20424;-53
2022/11/08 09:11:23;;;;;;;319.30;144.43;;;;;;;;;;5057754;28;20207;-53
2022/11/08 09:13:49;;;;;;;317.20;144.20;;;;;;;;;;5049174;28;20218;-53
2022/11/08 09:16:15;;;;;;;338.23;154.47;;;;;;;;;;5048585;28;20656;-53
2022/11/08 09:18:41;;;;;;;317.90;148.07;;;;;;;;;;5048076;28;20186;-53
2022/11/08 09:21:07;;;;;;;321.90;146.70;;;;;;;;;;5050037;28;20556;-53
2022/11/08 09:23:32;;;;;;;329.60;148.73;;;;;;;;;;5061372;28;20502;-53
2022/11/08 09:26:00;;;;;;;321.73;143.90;;;;;;;;;;5048597;28;20679;-53
2022/11/08 09:28:26;;;;;;;348.80;160.97;;;;;;;;;;5048580;28;20231;-53
2022/11/08 09:30:52;;;;;;;312.43;139.10;;;;;;;;;;5048379;28;20219;-53
2022/11/08 09:33:18;;;;;;;324.20;148.30;;;;;;;;;;5055387;28;20254;-53
2022/11/08 09:35:45;;;;;;;332.23;153.47;;;;;;;;;;5068442;28;20214;-53
2022/11/08 09:38:11;;;;;;;329.00;151.73;;;;;;;;;;5050349;28;20221;-53
2022/11/08 09:40:47;;;;;;;326.23;151.60;;;;;;;;;;5049866;28;20203;-53
2022/11/08 09:43:25;;;;;;;340.73;152.50;;;;;;;;;;5047947;28;20215;-53
2022/11/08 09:45:52;;;;;;;328.87;148.50;;;;;;;;;;5049420;28;20247;-53
2022/11/08 09:48:24;;;;;;;328.53;148.73;;;;;;;;;;5068724;28;20167;-53
2022/11/08 09:50:51;;;;;;;309.37;139.40;;;;;;;;;;5052760;28;20280;-53
2022/11/08 09:53:18;;;;;;;328.70;148.73;;;;;;;;;;5050535;28;20218;-53
2022/11/08 09:55:47;;;;;;;344.70;155.07;;;;;;;;;;5051891;28;20246;-53
2022/11/08 09:58:34;;;;;;;322.13;144.23;;;;;;;;;;5071211;28;20268;-53
2022/11/08 10:01:01;;;;;;;326.70;146.67;;;;;;;;;;5065766;28;20253;-53
2022/11/08 10:03:27;;;;;;;328.63;147.50;;;;;;;;;;5058151;28;20179;-53
2022/11/08 10:06:10;;;;;;;334.53;148.80;;;;;;;;;;5054805;28;20261;-53
2022/11/08 10:08:47;;;;;;;323.97;144.93;;;;;;;;;;5066789;28;20219;-53
2022/11/08 10:11:19;;;;;;;330.13;149.63;;;;;;;;;;5055686;28;20215;-53
2022/11/08 10:13:55;;;;;;;297.43;138.17;;;;;;;;;;5060230;28;20731;-54
2022/11/08 10:16:57;;;;;;;329.90;152.57;;;;;;;;;;5070249;28;20229;-53
2022/11/08 10:19:33;;;;;;;311.77;143.37;;;;;;;;;;5065041;28;20214;-53
2022/11/08 10:22:14;;;;;;;322.07;148.00;;;;;;;;;;5057195;28;20232;-53
2022/11/08 10:24:49;;;;;;;327.93;153.50;;;;;;;;;;5061968;28;20182;-53
2022/11/08 10:27:19;;;;;;;342.50;157.17;;;;;;;;;;5071714;28;20194;-53
2022/11/08 10:29:45;;;;;;;348.07;171.40;;;;;;;;;;5057855;23;20220;-51
2022/11/08 10:32:18;;;;;;;403.73;204.87;;;;;;;;;;5022603;28;20219;-51
2022/11/08 10:34:54;;;;;;;365.13;181.70;;;;;;;;;;5022335;28;20221;-51
2022/11/08 10:37:20;;;;;;;375.47;187.00;;;;;;;;;;5024248;28;20282;-51
2022/11/08 10:39:54;;;;;;;368.00;186.67;;;;;;;;;;5002257;28;20221;-51
2022/11/08 10:42:29;;;;;;;397.70;203.53;;;;;;;;;;5006143;28;20259;-51
2022/11/08 10:44:55;;;;;;;402.43;204.33;;;;;;;;;;4994364;28;20330;-53
2022/11/08 10:47:26;;;;;;;365.00;180.50;;;;;;;;;;4999317;28;20319;-51
2022/11/08 10:49:53;;;;;;;366.40;185.80;;;;;;;;;;5002153;28;20231;-51
2022/11/08 10:52:30;;;;;;;370.90;190.60;;;;;;;;;;5006062;28;20227;-51
2022/11/08 10:54:57;;;;;;;361.03;185.93;;;;;;;;;;5005205;28;20263;-51
2022/11/08 10:57:23;;;;;;;358.63;182.47;;;;;;;;;;5001836;28;20217;-52
2022/11/08 10:59:49;;;;;;;377.33;195.77;;;;;;;;;;5003763;28;20271;-51
2022/11/08 11:02:20;;;;;;;389.00;202.13;;;;;;;;;;4999711;28;20244;-51
2022/11/08 11:04:46;;;;;;;378.40;194.87;;;;;;;;;;5001475;28;20750;-51
2022/11/08 11:07:26;;;;;;;393.73;210.70;;;;;;;;;;4997973;28;20229;-51
2022/11/08 11:09:52;;;;;;;406.00;216.77;;;;;;;;;;4992562;28;20226;-51
2022/11/08 11:12:18;;;;;;;395.30;207.33;;;;;;;;;;5004518;28;20471;-51
2022/11/08 11:14:43;;;;;;;395.70;206.13;;;;;;;;;;4993400;28;20303;-51
2022/11/08 11:17:19;;;;;;;377.43;197.63;;;;;;;;;;4994354;28;20310;-51
2022/11/08 11:19:52;;;;;;;396.83;205.33;;;;;;;;;;4993229;28;20212;-52
2022/11/08 11:22:25;;;;;;;426.20;218.57;;;;;;;;;;4983563;28;20552;-51
2022/11/08 11:24:52;;;;;;;467.23;237.27;;;;;;;;;;4987118;28;20323;-51
2022/11/08 11:27:33;;;;;;;458.30;233.80;;;;;;;;;;4989805;28;20204;-51
2022/11/08 11:30:18;;;;;;;435.03;226.60;;;;;;;;;;4981335;28;20228;-51
2022/11/08 11:32:54;;;;;;;452.93;236.57;;;;;;;;;;4982613;28;20657;-51
2022/11/08 11:35:20;;;;;;;513.27;261.03;;;;;;;;;;4977046;28;20457;-52
2022/11/08 11:37:47;;;;;;;427.73;223.03;;;;;;;;;;4987223;28;20612;-51
2022/11/08 11:40:18;;;;;;;422.93;215.63;;;;;;;;;;4982900;28;20213;-51
2022/11/08 11:42:53;;;;;;;394.53;206.33;;;;;;;;;;4978096;28;20217;-52
2022/11/08 11:45:28;;;;;;;491.73;252.70;;;;;;;;;;4975099;28;20292;-52
2022/11/08 11:48:01;;;;;;;512.80;269.13;;;;;;;;;;4964778;28;20302;-52
2022/11/08 11:50:44;;;;;;;416.00;217.50;;;;;;;;;;4980540;28;23118;-52
2022/11/08 11:53:21;;;;;;;477.97;244.27;;;;;;;;;;4968885;28;20341;-52
2022/11/08 11:56:01;;;;;;;469.33;243.23;;;;;;;;;;4976033;28;21118;-52
2022/11/08 11:58:33;;;;;;;487.63;260.73;;;;;;;;;;4970356;28;20212;-52
2022/11/08 12:01:03;;;;;;;443.73;237.87;;;;;;;;;;4968843;28;20947;-52
2022/11/08 12:03:45;;;;;;;415.93;222.97;;;;;;;;;;4976961;28;20193;-52
2022/11/08 12:06:17;;;;;;;466.93;249.17;;;;;;;;;;4971228;28;20511;-52
2022/11/08 12:08:55;;;;;;;477.87;257.57;;;;;;;;;;4968494;28;21226;-53
2022/11/08 12:11:24;;;;;;;443.87;233.23;;;;;;;;;;4974467;28;20304;-51
2022/11/08 12:14:08;;;;;;;510.67;272.73;;;;;;;;;;4987033;28;20693;-52
2022/11/08 12:16:43;;;;;;;457.77;241.07;;;;;;;;;;4964261;28;21282;-52
2022/11/08 12:19:31;;;;;;;455.17;241.13;;;;;;;;;;4980120;28;20250;-53
2022/11/08 12:22:01;;;;;;;425.20;227.17;;;;;;;;;;4987149;28;20246;-53
2022/11/08 12:24:38;;;;;;;408.30;215.07;;;;;;;;;;4981098;28;20203;-52
2022/11/08 12:27:16;;;;;;;410.23;212.80;;;;;;;;;;4984813;28;20631;-52
2022/11/08 12:29:52;;;;;;;474.87;247.37;;;;;;;;;;4988639;28;20754;-53
2022/11/08 12:32:37;;;;;;;391.90;209.80;;;;;;;;;;4982433;28;20228;-53
2022/11/08 12:35:14;;;;;;;458.50;246.97;;;;;;;;;;4974319;28;20295;-52
2022/11/08 12:37:54;;;;;;;396.37;217.37;;;;;;;;;;4972389;28;20221;-52
2022/11/08 12:40:33;;;;;;;462.93;253.60;;;;;;;;;;4973495;28;20221;-53
2022/11/08 12:43:20;;;;;;;496.20;273.53;;;;;;;;;;4966481;28;20224;-53
2022/11/08 12:45:49;;;;;;;419.47;231.37;;;;;;;;;;4974613;28;20315;-53
2022/11/08 12:48:19;;;;;;;397.10;216.77;;;;;;;;;;4975714;28;20185;-53
2022/11/08 12:51:01;;;;;;;442.43;245.30;;;;;;;;;;4976820;28;20217;-53
2022/11/08 12:53:43;;;;;;;411.25;253.80;;;;;;;;;;4979078;28;20216;-53
2022/11/08 12:56:13;;;;;;;423.48;259.27;;;;;;;;;;4984203;28;20259;-53
2022/11/08 12:58:43;;;;;;;424.40;273.27;;;;;;;;;;4986180;28;20593;-53
2022/11/08 13:01:12;;;;;;;437.85;277.58;;;;;;;;;;4980562;28;20698;-53
2022/11/08 13:03:37;;;;;;;415.27;267.55;;;;;;;;;;4982537;28;20181;-53
2022/11/08 13:06:11;;;;;;;438.33;278.48;;;;;;;;;;4976712;28;20601;-54
2022/11/08 13:08:46;;;;;;;470.20;310.00;;;;;;;;;;4978132;28;20299;-53
2022/11/08 13:11:16;;;;;;;399.33;266.70;;;;;;;;;;4980365;28;20216;-53
2022/11/08 13:13:49;;;;;;;476.97;318.73;;;;;;;;;;4970528;28;20804;-54
2022/11/08 13:16:16;;;;;;;410.50;284.95;;;;;;;;;;4987454;28;20247;-53
2022/11/08 13:18:56;;;;;;;413.60;287.88;;;;;;;;;;4986322;28;20251;-53
2022/11/08 13:21:25;;;;;;;428.73;287.85;;;;;;;;;;4982668;28;20240;-53
2022/11/08 13:23:52;;;;;;;430.10;297.33;;;;;;;;;;4987020;28;20620;-53
2022/11/08 13:26:25;;;;;;;403.45;269.60;;;;;;;;;;4987084;28;20228;-53
2022/11/08 13:28:52;;;;;;;411.05;271.58;;;;;;;;;;4987452;28;20235;-53
2022/11/08 13:31:41;;;;;;;453.50;295.88;;;;;;;;;;4984845;28;20578;-53
2022/11/08 13:34:12;;;;;;;449.45;282.85;;;;;;;;;;4977589;28;20537;-53
2022/11/08 13:37:01;;;;;;;419.83;267.95;;;;;;;;;;4980885;28;20192;-53
2022/11/08 13:39:26;;;;;;;433.08;263.75;;;;;;;;;;4977610;28;20190;-53
2022/11/08 13:42:00;;;;;;;457.65;281.02;;;;;;;;;;4976014;28;20678;-54
2022/11/08 13:44:44;;;;;;;484.08;295.60;;;;;;;;;;4978784;28;20221;-54
2022/11/08 13:47:29;;;;;;;402.10;242.05;;;;;;;;;;4973605;28;20220;-52
2022/11/08 13:50:15;;;;;;;390.97;230.27;;;;;;;;;;4983499;28;20213;-52
2022/11/08 13:52:45;;;;;;;405.23;238.67;;;;;;;;;;4988728;28;20235;-51
2022/11/08 13:55:34;;;;;;;471.87;275.20;;;;;;;;;;4989945;28;20260;-51
2022/11/08 13:58:01;;;;;;;417.90;242.88;;;;;;;;;;4973827;28;20232;-53
2022/11/08 14:00:42;;;;;;;473.30;277.00;;;;;;;;;;4976499;28;20192;-52
2022/11/08 14:03:37;;;;;;;387.97;228.63;;;;;;;;;;4986506;28;20216;-52
2022/11/08 14:06:06;;;;;;;424.92;242.35;;;;;;;;;;4987649;28;20252;-52
2022/11/08 14:08:51;;;;;;;400.27;225.27;;;;;;;;;;4986672;28;20275;-52
2022/11/08 14:11:17;;;;;;;414.87;233.03;;;;;;;;;;4983390;28;20768;-52
2022/11/08 14:13:56;;;;;;;387.87;216.60;;;;;;;;;;4988406;28;20227;-52
2022/11/08 14:16:25;;;;;;;414.07;228.87;;;;;;;;;;4970820;28;20230;-52
2022/11/08 14:18:51;;;;;;;413.50;230.83;;;;;;;;;;4973826;28;20221;-52
2022/11/08 14:21:18;;;;;;;398.77;221.87;;;;;;;;;;4969406;28;20676;-52
2022/11/08 14:23:45;;;;;;;399.67;225.13;;;;;;;;;;4991781;28;20449;-52
2022/11/08 14:26:13;;;;;;;406.53;225.33;;;;;;;;;;4986122;28;20750;-52